sensor_id;sensor_type;location;lat;lon;timestamp;temperature;humidity
72320;SHT30;60269;52.502;16.732;2023-02-02T00:00:04;3.48;91.82
72320;SHT30;60269;52.502;16.732;2023-02-02T00:03:39;3.47;91.86
72320;SHT30;60269;52.502;16.732;2023-02-02T00:07:11;3.42;92.12
72320;SHT30;60269;52.502;16.732;2023-02-02T00:10:43;3.42;92.20
72320;SHT30;60269;52.502;16.732;2023-02-02T00:14:17;3.35;92.87
72320;SHT30;60269;52.502;16.732;2023-02-02T00:17:52;3.33;92.87
72320;SHT30;60269;52.502;16.732;2023-02-02T00:21:25;3.27;93.29
72320;SHT30;60269;52.502;16.732;2023-02-02T00:24:57;3.26;93.67
72320;SHT30;60269;52.502;16.732;2023-02-02T00:28:30;3.20;93.79
72320;SHT30;60269;52.502;16.732;2023-02-02T00:32:02;3.19;93.53
72320;SHT30;60269;52.502;16.732;2023-02-02T00:35:34;3.23;93.09
72320;SHT30;60269;52.502;16.732;2023-02-02T00:39:06;3.24;92.68
72320;SHT30;60269;52.502;16.732;2023-02-02T00:42:39;3.24;92.48
72320;SHT30;60269;52.502;16.732;2023-02-02T00:46:17;3.27;92.17
72320;SHT30;60269;52.502;16.732;2023-02-02T00:49:49;3.35;91.64
72320;SHT30;60269;52.502;16.732;2023-02-02T00:53:21;3.40;91.34
72320;SHT30;60269;52.502;16.732;2023-02-02T00:56:53;3.37;91.26
72320;SHT30;60269;52.502;16.732;2023-02-02T01:00:26;3.34;91.55
72320;SHT30;60269;52.502;16.732;2023-02-02T01:03:58;3.27;91.67
72320;SHT30;60269;52.502;16.732;2023-02-02T01:07:30;3.31;91.60
72320;SHT30;60269;52.502;16.732;2023-02-02T01:11:02;3.33;91.39
72320;SHT30;60269;52.502;16.732;2023-02-02T01:14:35;3.37;91.06
72320;SHT30;60269;52.502;16.732;2023-02-02T01:18:07;3.34;91.46
72320;SHT30;60269;52.502;16.732;2023-02-02T01:21:40;3.33;91.20
72320;SHT30;60269;52.502;16.732;2023-02-02T01:25:12;3.38;90.67
72320;SHT30;60269;52.502;16.732;2023-02-02T01:28:45;3.26;91.35
72320;SHT30;60269;52.502;16.732;2023-02-02T01:32:17;3.27;91.39
72320;SHT30;60269;52.502;16.732;2023-02-02T01:35:51;3.34;90.85
72320;SHT30;60269;52.502;16.732;2023-02-02T01:39:24;3.26;91.32
72320;SHT30;60269;52.502;16.732;2023-02-02T01:42:56;3.26;91.23
72320;SHT30;60269;52.502;16.732;2023-02-02T01:46:30;3.38;90.46
72320;SHT30;60269;52.502;16.732;2023-02-02T01:50:04;3.37;90.50
72320;SHT30;60269;52.502;16.732;2023-02-02T01:53:37;3.31;91.12
72320;SHT30;60269;52.502;16.732;2023-02-02T02:01:07;3.28;91.06
72320;SHT30;60269;52.502;16.732;2023-02-02T02:04:39;3.30;90.89
72320;SHT30;60269;52.502;16.732;2023-02-02T02:08:22;3.27;91.12
72320;SHT30;60269;52.502;16.732;2023-02-02T02:11:54;3.28;91.13
72320;SHT30;60269;52.502;16.732;2023-02-02T02:15:29;3.19;92.36
72320;SHT30;60269;52.502;16.732;2023-02-02T02:24:36;2.95;93.69
72320;SHT30;60269;52.502;16.732;2023-02-02T02:28:37;2.83;94.90
72320;SHT30;60269;52.502;16.732;2023-02-02T02:35:52;2.73;95.73
72320;SHT30;60269;52.502;16.732;2023-02-02T02:39:36;2.69;96.01
72320;SHT30;60269;52.502;16.732;2023-02-02T02:43:23;2.63;96.24
72320;SHT30;60269;52.502;16.732;2023-02-02T02:46:57;2.54;96.93
72320;SHT30;60269;52.502;16.732;2023-02-02T02:50:30;2.44;97.39
72320;SHT30;60269;52.502;16.732;2023-02-02T02:54:02;2.44;97.20
72320;SHT30;60269;52.502;16.732;2023-02-02T03:01:22;2.51;97.25
72320;SHT30;60269;52.502;16.732;2023-02-02T03:08:58;2.54;97.25
72320;SHT30;60269;52.502;16.732;2023-02-02T03:12:31;2.61;97.14
72320;SHT30;60269;52.502;16.732;2023-02-02T03:16:04;2.65;97.07
72320;SHT30;60269;52.502;16.732;2023-02-02T03:19:36;2.65;97.00
72320;SHT30;60269;52.502;16.732;2023-02-02T03:23:08;2.73;96.62
72320;SHT30;60269;52.502;16.732;2023-02-02T03:26:40;2.81;96.19
72320;SHT30;60269;52.502;16.732;2023-02-02T03:30:13;2.79;96.69
72320;SHT30;60269;52.502;16.732;2023-02-02T03:33:45;2.81;96.70
72320;SHT30;60269;52.502;16.732;2023-02-02T03:37:18;2.86;96.86
72320;SHT30;60269;52.502;16.732;2023-02-02T03:40:50;2.88;96.65
72320;SHT30;60269;52.502;16.732;2023-02-02T03:44:22;2.93;96.51
72320;SHT30;60269;52.502;16.732;2023-02-02T03:47:54;2.92;96.92
72320;SHT30;60269;52.502;16.732;2023-02-02T03:51:27;2.93;97.25
72320;SHT30;60269;52.502;16.732;2023-02-02T03:54:59;2.92;97.53
72320;SHT30;60269;52.502;16.732;2023-02-02T03:58:31;3.00;96.92
72320;SHT30;60269;52.502;16.732;2023-02-02T04:02:04;3.00;97.45
72320;SHT30;60269;52.502;16.732;2023-02-02T04:05:36;3.04;97.24
72320;SHT30;60269;52.502;16.732;2023-02-02T04:09:08;3.00;97.85
72320;SHT30;60269;52.502;16.732;2023-02-02T04:12:40;3.02;97.77
72320;SHT30;60269;52.502;16.732;2023-02-02T04:16:12;3.04;98.10
72320;SHT30;60269;52.502;16.732;2023-02-02T04:19:45;3.04;97.99
72320;SHT30;60269;52.502;16.732;2023-02-02T04:23:19;3.10;97.92
72320;SHT30;60269;52.502;16.732;2023-02-02T04:26:51;3.06;98.32
72320;SHT30;60269;52.502;16.732;2023-02-02T04:30:24;3.09;97.74
72320;SHT30;60269;52.502;16.732;2023-02-02T04:33:56;3.07;97.99
72320;SHT30;60269;52.502;16.732;2023-02-02T04:37:30;3.13;97.84
72320;SHT30;60269;52.502;16.732;2023-02-02T04:41:08;3.10;97.98
72320;SHT30;60269;52.502;16.732;2023-02-02T04:44:40;3.13;97.72
72320;SHT30;60269;52.502;16.732;2023-02-02T04:48:12;3.16;97.02
72320;SHT30;60269;52.502;16.732;2023-02-02T04:51:44;3.12;97.41
72320;SHT30;60269;52.502;16.732;2023-02-02T04:55:19;3.09;97.68
72320;SHT30;60269;52.502;16.732;2023-02-02T04:58:52;3.09;97.36
72320;SHT30;60269;52.502;16.732;2023-02-02T05:02:25;3.13;97.14
72320;SHT30;60269;52.502;16.732;2023-02-02T05:06:01;3.19;96.89
72320;SHT30;60269;52.502;16.732;2023-02-02T05:09:34;3.19;96.87
72320;SHT30;60269;52.502;16.732;2023-02-02T05:13:07;3.27;96.05
72320;SHT30;60269;52.502;16.732;2023-02-02T05:16:40;3.27;96.06
72320;SHT30;60269;52.502;16.732;2023-02-02T05:20:15;3.28;96.02
72320;SHT30;60269;52.502;16.732;2023-02-02T05:23:48;3.24;96.37
72320;SHT30;60269;52.502;16.732;2023-02-02T05:27:20;3.20;97.07
72320;SHT30;60269;52.502;16.732;2023-02-02T05:30:52;3.19;96.47
72320;SHT30;60269;52.502;16.732;2023-02-02T05:34:24;3.23;96.04
72320;SHT30;60269;52.502;16.732;2023-02-02T05:37:57;3.23;95.97
72320;SHT30;60269;52.502;16.732;2023-02-02T05:41:30;3.28;95.45
72320;SHT30;60269;52.502;16.732;2023-02-02T05:45:06;3.31;94.59
72320;SHT30;60269;52.502;16.732;2023-02-02T05:48:38;3.28;95.24
72320;SHT30;60269;52.502;16.732;2023-02-02T05:52:15;3.33;94.60
72320;SHT30;60269;52.502;16.732;2023-02-02T05:55:52;3.30;95.01
72320;SHT30;60269;52.502;16.732;2023-02-02T05:59:26;3.24;95.40
72320;SHT30;60269;52.502;16.732;2023-02-02T06:03:05;3.21;94.71
72320;SHT30;60269;52.502;16.732;2023-02-02T06:06:37;3.16;95.21
72320;SHT30;60269;52.502;16.732;2023-02-02T06:10:10;3.12;95.67
72320;SHT30;60269;52.502;16.732;2023-02-02T06:13:43;3.09;95.80
72320;SHT30;60269;52.502;16.732;2023-02-02T06:17:17;3.07;95.86
72320;SHT30;60269;52.502;16.732;2023-02-02T06:20:56;3.12;95.57
72320;SHT30;60269;52.502;16.732;2023-02-02T06:24:28;3.07;95.56
72320;SHT30;60269;52.502;16.732;2023-02-02T06:28:00;3.09;95.68
72320;SHT30;60269;52.502;16.732;2023-02-02T06:31:32;3.09;95.27
72320;SHT30;60269;52.502;16.732;2023-02-02T06:35:06;3.06;95.15
72320;SHT30;60269;52.502;16.732;2023-02-02T06:38:38;2.99;95.10
72320;SHT30;60269;52.502;16.732;2023-02-02T06:42:10;3.09;93.98
72320;SHT30;60269;52.502;16.732;2023-02-02T06:45:53;3.04;94.39
72320;SHT30;60269;52.502;16.732;2023-02-02T06:49:26;3.03;94.62
72320;SHT30;60269;52.502;16.732;2023-02-02T06:52:58;3.04;94.73
72320;SHT30;60269;52.502;16.732;2023-02-02T06:56:30;3.02;94.43
72320;SHT30;60269;52.502;16.732;2023-02-02T07:00:03;3.03;93.78
72320;SHT30;60269;52.502;16.732;2023-02-02T07:03:35;3.00;93.78
72320;SHT30;60269;52.502;16.732;2023-02-02T07:07:08;3.04;92.87
72320;SHT30;60269;52.502;16.732;2023-02-02T07:10:40;3.03;93.10
72320;SHT30;60269;52.502;16.732;2023-02-02T07:14:32;3.09;91.54
72320;SHT30;60269;52.502;16.732;2023-02-02T07:18:06;3.10;91.22
72320;SHT30;60269;52.502;16.732;2023-02-02T07:21:37;3.12;91.61
72320;SHT30;60269;52.502;16.732;2023-02-02T07:25:10;3.09;92.03
72320;SHT30;60269;52.502;16.732;2023-02-02T07:28:42;3.14;91.54
72320;SHT30;60269;52.502;16.732;2023-02-02T07:32:15;3.06;92.25
72320;SHT30;60269;52.502;16.732;2023-02-02T07:35:47;2.89;92.71
72320;SHT30;60269;52.502;16.732;2023-02-02T07:39:21;2.83;93.33
72320;SHT30;60269;52.502;16.732;2023-02-02T07:42:53;2.73;93.94
72320;SHT30;60269;52.502;16.732;2023-02-02T07:46:25;2.76;93.82
72320;SHT30;60269;52.502;16.732;2023-02-02T07:49:59;2.75;93.30
72320;SHT30;60269;52.502;16.732;2023-02-02T07:53:32;2.75;92.62
72320;SHT30;60269;52.502;16.732;2023-02-02T07:57:05;2.75;92.69
72320;SHT30;60269;52.502;16.732;2023-02-02T08:00:37;2.78;92.39
72320;SHT30;60269;52.502;16.732;2023-02-02T08:04:09;2.82;91.86
72320;SHT30;60269;52.502;16.732;2023-02-02T08:07:42;2.83;91.79
72320;SHT30;60269;52.502;16.732;2023-02-02T08:11:18;2.85;91.71
72320;SHT30;60269;52.502;16.732;2023-02-02T08:14:50;2.83;91.98
72320;SHT30;60269;52.502;16.732;2023-02-02T08:18:24;2.88;91.51
72320;SHT30;60269;52.502;16.732;2023-02-02T08:21:58;2.92;91.32
72320;SHT30;60269;52.502;16.732;2023-02-02T08:25:31;3.07;90.42
72320;SHT30;60269;52.502;16.732;2023-02-02T08:29:05;3.13;90.06
72320;SHT30;60269;52.502;16.732;2023-02-02T08:32:38;3.06;90.41
72320;SHT30;60269;52.502;16.732;2023-02-02T08:36:12;3.09;90.04
72320;SHT30;60269;52.502;16.732;2023-02-02T08:39:44;3.12;89.74
72320;SHT30;60269;52.502;16.732;2023-02-02T08:43:17;3.14;89.00
72320;SHT30;60269;52.502;16.732;2023-02-02T08:46:49;3.17;88.89
72320;SHT30;60269;52.502;16.732;2023-02-02T08:50:21;3.21;88.81
72320;SHT30;60269;52.502;16.732;2023-02-02T08:53:57;3.24;88.54
72320;SHT30;60269;52.502;16.732;2023-02-02T08:57:29;3.21;88.33
72320;SHT30;60269;52.502;16.732;2023-02-02T09:01:23;3.31;88.80
72320;SHT30;60269;52.502;16.732;2023-02-02T09:04:55;3.35;87.67
72320;SHT30;60269;52.502;16.732;2023-02-02T09:08:27;3.44;87.47
72320;SHT30;60269;52.502;16.732;2023-02-02T09:11:59;3.54;86.31
72320;SHT30;60269;52.502;16.732;2023-02-02T09:15:32;3.58;87.15
72320;SHT30;60269;52.502;16.732;2023-02-02T09:19:04;3.51;86.88
72320;SHT30;60269;52.502;16.732;2023-02-02T09:22:36;3.55;87.48
72320;SHT30;60269;52.502;16.732;2023-02-02T09:29:51;3.60;86.67
72320;SHT30;60269;52.502;16.732;2023-02-02T09:33:25;3.68;85.70
72320;SHT30;60269;52.502;16.732;2023-02-02T09:36:56;4.19;83.94
72320;SHT30;60269;52.502;16.732;2023-02-02T09:40:30;4.58;81.85
72320;SHT30;60269;52.502;16.732;2023-02-02T09:48:32;4.48;81.53
72320;SHT30;60269;52.502;16.732;2023-02-02T09:52:20;4.68;80.28
72320;SHT30;60269;52.502;16.732;2023-02-02T09:55:58;5.29;79.02
72320;SHT30;60269;52.502;16.732;2023-02-02T09:59:36;5.00;77.96
72320;SHT30;60269;52.502;16.732;2023-02-02T10:03:23;4.85;77.41
72320;SHT30;60269;52.502;16.732;2023-02-02T10:07:00;4.51;79.04
72320;SHT30;60269;52.502;16.732;2023-02-02T10:10:40;4.39;79.22
72320;SHT30;60269;52.502;16.732;2023-02-02T10:14:18;4.36;79.37
72320;SHT30;60269;52.502;16.732;2023-02-02T10:25:28;4.71;80.50
72320;SHT30;60269;52.502;16.732;2023-02-02T10:33:12;4.82;79.14
72320;SHT30;60269;52.502;16.732;2023-02-02T10:44:48;5.19;76.49
72320;SHT30;60269;52.502;16.732;2023-02-02T10:48:25;4.81;76.28
72320;SHT30;60269;52.502;16.732;2023-02-02T10:55:49;4.37;77.44
72320;SHT30;60269;52.502;16.732;2023-02-02T10:59:29;4.48;76.84
72320;SHT30;60269;52.502;16.732;2023-02-02T11:03:03;4.17;79.75
72320;SHT30;60269;52.502;16.732;2023-02-02T11:06:35;4.10;78.95
72320;SHT30;60269;52.502;16.732;2023-02-02T11:10:32;4.33;79.32
72320;SHT30;60269;52.502;16.732;2023-02-02T11:17:41;4.30;81.05
72320;SHT30;60269;52.502;16.732;2023-02-02T11:21:22;3.64;85.99
72320;SHT30;60269;52.502;16.732;2023-02-02T11:24:56;3.28;87.39
72320;SHT30;60269;52.502;16.732;2023-02-02T11:28:33;3.20;86.93
72320;SHT30;60269;52.502;16.732;2023-02-02T11:32:32;3.13;86.74
72320;SHT30;60269;52.502;16.732;2023-02-02T11:36:20;2.83;87.60
72320;SHT30;60269;52.502;16.732;2023-02-02T11:39:52;3.04;87.68
72320;SHT30;60269;52.502;16.732;2023-02-02T11:43:33;3.69;82.22
72320;SHT30;60269;52.502;16.732;2023-02-02T11:47:24;3.23;85.21
72320;SHT30;60269;52.502;16.732;2023-02-02T11:50:58;2.63;85.88
72320;SHT30;60269;52.502;16.732;2023-02-02T11:54:34;2.89;85.89
72320;SHT30;60269;52.502;16.732;2023-02-02T12:05:48;3.00;84.80
72320;SHT30;60269;52.502;16.732;2023-02-02T12:09:23;4.07;81.89
72320;SHT30;60269;52.502;16.732;2023-02-02T12:28:26;6.69;71.75
72320;SHT30;60269;52.502;16.732;2023-02-02T12:43:44;4.39;78.04
72320;SHT30;60269;52.502;16.732;2023-02-02T12:51:16;6.46;70.30
72320;SHT30;60269;52.502;16.732;2023-02-02T12:59:06;6.72;67.90
72320;SHT30;60269;52.502;16.732;2023-02-02T13:10:59;4.92;72.38
72320;SHT30;60269;52.502;16.732;2023-02-02T13:14:40;4.43;74.41
72320;SHT30;60269;52.502;16.732;2023-02-02T13:18:22;4.13;74.87
72320;SHT30;60269;52.502;16.732;2023-02-02T13:21:57;4.10;75.36
72320;SHT30;60269;52.502;16.732;2023-02-02T13:25:34;4.17;76.08
72320;SHT30;60269;52.502;16.732;2023-02-02T13:33:02;3.92;77.88
72320;SHT30;60269;52.502;16.732;2023-02-02T13:36:39;3.85;79.31
72320;SHT30;60269;52.502;16.732;2023-02-02T13:40:57;3.79;80.96
72320;SHT30;60269;52.502;16.732;2023-02-02T13:44:34;3.68;80.75
72320;SHT30;60269;52.502;16.732;2023-02-02T13:56:01;3.41;81.64
72320;SHT30;60269;52.502;16.732;2023-02-02T14:03:35;3.41;81.08
72320;SHT30;60269;52.502;16.732;2023-02-02T14:07:09;3.41;81.26
72320;SHT30;60269;52.502;16.732;2023-02-02T14:10:44;3.30;81.48
72320;SHT30;60269;52.502;16.732;2023-02-02T14:14:27;3.20;81.77
72320;SHT30;60269;52.502;16.732;2023-02-02T14:18:03;3.14;81.33
72320;SHT30;60269;52.502;16.732;2023-02-02T14:28:59;3.20;80.63
72320;SHT30;60269;52.502;16.732;2023-02-02T14:32:40;3.20;80.17
72320;SHT30;60269;52.502;16.732;2023-02-02T14:36:14;3.12;80.59
72320;SHT30;60269;52.502;16.732;2023-02-02T14:43:35;3.20;80.17
72320;SHT30;60269;52.502;16.732;2023-02-02T14:47:41;3.21;79.92
72320;SHT30;60269;52.502;16.732;2023-02-02T14:51:20;2.91;81.58
72320;SHT30;60269;52.502;16.732;2023-02-02T14:54:54;2.27;87.18
72320;SHT30;60269;52.502;16.732;2023-02-02T14:58:43;1.92;90.58
72320;SHT30;60269;52.502;16.732;2023-02-02T15:02:33;1.75;92.03
72320;SHT30;60269;52.502;16.732;2023-02-02T15:09:57;1.76;92.25
72320;SHT30;60269;52.502;16.732;2023-02-02T15:13:34;1.86;91.71
72320;SHT30;60269;52.502;16.732;2023-02-02T15:21:14;1.80;89.86
72320;SHT30;60269;52.502;16.732;2023-02-02T15:24:48;1.86;87.97
72320;SHT30;60269;52.502;16.732;2023-02-02T15:32:14;1.75;86.53
72320;SHT30;60269;52.502;16.732;2023-02-02T15:35:47;1.63;86.65
72320;SHT30;60269;52.502;16.732;2023-02-02T15:43:03;1.45;83.64
72320;SHT30;60269;52.502;16.732;2023-02-02T15:46:37;1.49;82.24
72320;SHT30;60269;52.502;16.732;2023-02-02T15:50:19;1.56;81.10
72320;SHT30;60269;52.502;16.732;2023-02-02T15:53:53;1.70;80.00
72320;SHT30;60269;52.502;16.732;2023-02-02T15:57:33;1.73;79.53
72320;SHT30;60269;52.502;16.732;2023-02-02T16:01:15;1.79;79.39
72320;SHT30;60269;52.502;16.732;2023-02-02T16:04:47;1.83;79.09
72320;SHT30;60269;52.502;16.732;2023-02-02T16:08:23;1.77;79.50
72320;SHT30;60269;52.502;16.732;2023-02-02T16:11:58;1.70;80.02
72320;SHT30;60269;52.502;16.732;2023-02-02T16:15:30;1.62;79.34
72320;SHT30;60269;52.502;16.732;2023-02-02T16:19:20;1.70;79.13
72320;SHT30;60269;52.502;16.732;2023-02-02T16:22:55;1.86;78.52
72320;SHT30;60269;52.502;16.732;2023-02-02T16:26:34;1.82;78.12
72320;SHT30;60269;52.502;16.732;2023-02-02T16:30:08;1.69;79.30
72320;SHT30;60269;52.502;16.732;2023-02-02T16:33:42;1.46;79.38
72320;SHT30;60269;52.502;16.732;2023-02-02T16:37:24;1.25;80.64
72320;SHT30;60269;52.502;16.732;2023-02-02T16:41:09;1.21;80.70
72320;SHT30;60269;52.502;16.732;2023-02-02T16:44:42;1.09;80.35
72320;SHT30;60269;52.502;16.732;2023-02-02T16:48:28;1.17;80.28
72320;SHT30;60269;52.502;16.732;2023-02-02T16:52:16;1.34;79.75
72320;SHT30;60269;52.502;16.732;2023-02-02T16:55:49;1.32;80.49
72320;SHT30;60269;52.502;16.732;2023-02-02T16:59:35;1.44;80.11
72320;SHT30;60269;52.502;16.732;2023-02-02T17:03:14;1.39;79.62
72320;SHT30;60269;52.502;16.732;2023-02-02T17:06:47;1.28;79.52
72320;SHT30;60269;52.502;16.732;2023-02-02T17:10:27;0.98;80.96
72320;SHT30;60269;52.502;16.732;2023-02-02T17:14:18;0.76;81.97
72320;SHT30;60269;52.502;16.732;2023-02-02T17:17:50;0.58;82.20
72320;SHT30;60269;52.502;16.732;2023-02-02T17:21:24;0.65;82.40
72320;SHT30;60269;52.502;16.732;2023-02-02T17:24:57;0.58;81.94
72320;SHT30;60269;52.502;16.732;2023-02-02T17:28:29;0.48;82.47
72320;SHT30;60269;52.502;16.732;2023-02-02T17:32:02;0.29;82.73
72320;SHT30;60269;52.502;16.732;2023-02-02T17:35:34;0.18;83.01
72320;SHT30;60269;52.502;16.732;2023-02-02T17:39:24;-0.09;84.59
72320;SHT30;60269;52.502;16.732;2023-02-02T17:42:57;-0.02;83.54
72320;SHT30;60269;52.502;16.732;2023-02-02T17:46:28;-0.02;83.35
72320;SHT30;60269;52.502;16.732;2023-02-02T17:50:01;0.01;83.27
72320;SHT30;60269;52.502;16.732;2023-02-02T17:53:34;-0.06;83.50
72320;SHT30;60269;52.502;16.732;2023-02-02T17:57:07;-0.13;84.10
72320;SHT30;60269;52.502;16.732;2023-02-02T18:00:40;-0.27;84.58
72320;SHT30;60269;52.502;16.732;2023-02-02T18:04:13;-0.53;86.09
72320;SHT30;60269;52.502;16.732;2023-02-02T18:07:46;-0.56;86.66
72320;SHT30;60269;52.502;16.732;2023-02-02T18:11:18;-0.44;87.04
72320;SHT30;60269;52.502;16.732;2023-02-02T18:14:51;-0.44;86.66
72320;SHT30;60269;52.502;16.732;2023-02-02T18:18:23;-0.51;87.11
72320;SHT30;60269;52.502;16.732;2023-02-02T18:21:56;-0.47;86.90
72320;SHT30;60269;52.502;16.732;2023-02-02T18:25:31;-0.44;86.35
72320;SHT30;60269;52.502;16.732;2023-02-02T18:29:04;-0.56;86.73
72320;SHT30;60269;52.502;16.732;2023-02-02T18:32:37;-0.54;86.39
72320;SHT30;60269;52.502;16.732;2023-02-02T18:36:15;-0.56;85.98
72320;SHT30;60269;52.502;16.732;2023-02-02T18:39:50;-0.54;86.18
72320;SHT30;60269;52.502;16.732;2023-02-02T18:43:22;-0.75;87.04
72320;SHT30;60269;52.502;16.732;2023-02-02T18:46:54;-0.77;86.90
72320;SHT30;60269;52.502;16.732;2023-02-02T18:50:26;-0.77;86.99
72320;SHT30;60269;52.502;16.732;2023-02-02T18:53:58;-0.95;87.46
72320;SHT30;60269;52.502;16.732;2023-02-02T18:57:31;-0.85;86.61
72320;SHT30;60269;52.502;16.732;2023-02-02T19:01:14;-0.92;86.68
72320;SHT30;60269;52.502;16.732;2023-02-02T19:04:46;-0.92;86.90
72320;SHT30;60269;52.502;16.732;2023-02-02T19:08:37;-0.88;86.24
72320;SHT30;60269;52.502;16.732;2023-02-02T19:12:13;-1.05;86.67
72320;SHT30;60269;52.502;16.732;2023-02-02T19:15:47;-1.13;86.68
72320;SHT30;60269;52.502;16.732;2023-02-02T19:19:23;-1.19;86.84
72320;SHT30;60269;52.502;16.732;2023-02-02T19:23:08;-1.19;86.61
72320;SHT30;60269;52.502;16.732;2023-02-02T19:26:44;-1.43;87.79
72320;SHT30;60269;52.502;16.732;2023-02-02T19:30:18;-1.78;89.20
72320;SHT30;60269;52.502;16.732;2023-02-02T19:33:51;-1.87;90.43
72320;SHT30;60269;52.502;16.732;2023-02-02T19:37:29;-1.89;90.59
72320;SHT30;60269;52.502;16.732;2023-02-02T19:41:01;-1.99;91.25
72320;SHT30;60269;52.502;16.732;2023-02-02T19:44:33;-1.88;91.09
72320;SHT30;60269;52.502;16.732;2023-02-02T19:48:30;-1.94;91.00
72320;SHT30;60269;52.502;16.732;2023-02-02T19:52:15;-1.99;91.35
72320;SHT30;60269;52.502;16.732;2023-02-02T19:55:49;-1.92;91.59
72320;SHT30;60269;52.502;16.732;2023-02-02T19:59:24;-2.02;92.32
72320;SHT30;60269;52.502;16.732;2023-02-02T20:03:01;-2.10;93.00
72320;SHT30;60269;52.502;16.732;2023-02-02T20:06:36;-2.22;93.98
72320;SHT30;60269;52.502;16.732;2023-02-02T20:10:38;-2.16;94.16
72320;SHT30;60269;52.502;16.732;2023-02-02T20:17:49;-2.01;94.27
72320;SHT30;60269;52.502;16.732;2023-02-02T20:21:33;-1.95;93.61
72320;SHT30;60269;52.502;16.732;2023-02-02T20:25:06;-1.98;94.02
72320;SHT30;60269;52.502;16.732;2023-02-02T20:28:41;-1.87;93.55
72320;SHT30;60269;52.502;16.732;2023-02-02T20:32:21;-1.71;93.03
72320;SHT30;60269;52.502;16.732;2023-02-02T20:35:54;-1.64;93.15
72320;SHT30;60269;52.502;16.732;2023-02-02T20:39:35;-1.85;93.46
72320;SHT30;60269;52.502;16.732;2023-02-02T20:43:07;-1.74;93.66
72320;SHT30;60269;52.502;16.732;2023-02-02T20:46:39;-1.79;93.65
72320;SHT30;60269;52.502;16.732;2023-02-02T20:50:13;-1.87;94.14
72320;SHT30;60269;52.502;16.732;2023-02-02T20:53:46;-1.66;93.47
72320;SHT30;60269;52.502;16.732;2023-02-02T20:57:18;-1.66;93.40
72320;SHT30;60269;52.502;16.732;2023-02-02T21:00:51;-1.68;93.86
72320;SHT30;60269;52.502;16.732;2023-02-02T21:04:23;-1.63;94.30
72320;SHT30;60269;52.502;16.732;2023-02-02T21:07:55;-1.75;94.49
72320;SHT30;60269;52.502;16.732;2023-02-02T21:11:27;-1.72;94.61
72320;SHT30;60269;52.502;16.732;2023-02-02T21:15:00;-1.84;94.92
72320;SHT30;60269;52.502;16.732;2023-02-02T21:18:35;-1.99;95.22
72320;SHT30;60269;52.502;16.732;2023-02-02T21:22:06;-1.95;95.70
72320;SHT30;60269;52.502;16.732;2023-02-02T21:25:39;-1.98;95.91
72320;SHT30;60269;52.502;16.732;2023-02-02T21:29:11;-1.98;95.71
72320;SHT30;60269;52.502;16.732;2023-02-02T21:32:43;-1.95;95.75
72320;SHT30;60269;52.502;16.732;2023-02-02T21:39:54;-2.05;95.73
72320;SHT30;60269;52.502;16.732;2023-02-02T21:43:29;-2.16;95.90
72320;SHT30;60269;52.502;16.732;2023-02-02T21:47:21;-2.25;96.56
72320;SHT30;60269;52.502;16.732;2023-02-02T21:50:56;-2.26;96.80
72320;SHT30;60269;52.502;16.732;2023-02-02T21:54:34;-2.36;96.78
72320;SHT30;60269;52.502;16.732;2023-02-02T22:01:56;-2.47;97.12
72320;SHT30;60269;52.502;16.732;2023-02-02T22:05:33;-2.30;97.10
72320;SHT30;60269;52.502;16.732;2023-02-02T22:09:17;-2.42;97.09
72320;SHT30;60269;52.502;16.732;2023-02-02T22:12:50;-2.54;97.14
72320;SHT30;60269;52.502;16.732;2023-02-02T22:16:22;-2.58;97.83
72320;SHT30;60269;52.502;16.732;2023-02-02T22:20:02;-2.66;97.98
72320;SHT30;60269;52.502;16.732;2023-02-02T22:23:38;-2.50;98.11
72320;SHT30;60269;52.502;16.732;2023-02-02T22:27:16;-2.58;98.45
72320;SHT30;60269;52.502;16.732;2023-02-02T22:30:50;-2.53;98.22
72320;SHT30;60269;52.502;16.732;2023-02-02T22:34:23;-2.36;97.81
72320;SHT30;60269;52.502;16.732;2023-02-02T22:37:55;-2.37;97.30
72320;SHT30;60269;52.502;16.732;2023-02-02T22:41:27;-2.49;97.76
72320;SHT30;60269;52.502;16.732;2023-02-02T22:44:59;-2.42;97.66
72320;SHT30;60269;52.502;16.732;2023-02-02T22:48:31;-2.60;97.83
72320;SHT30;60269;52.502;16.732;2023-02-02T22:52:03;-2.39;98.52
72320;SHT30;60269;52.502;16.732;2023-02-02T22:55:35;-2.36;98.13
72320;SHT30;60269;52.502;16.732;2023-02-02T22:59:07;-2.43;98.37
72320;SHT30;60269;52.502;16.732;2023-02-02T23:02:40;-2.32;98.09
72320;SHT30;60269;52.502;16.732;2023-02-02T23:06:12;-2.33;98.27
72320;SHT30;60269;52.502;16.732;2023-02-02T23:09:45;-2.32;98.34
72320;SHT30;60269;52.502;16.732;2023-02-02T23:13:17;-2.18;98.29
72320;SHT30;60269;52.502;16.732;2023-02-02T23:16:49;-2.18;98.31
72320;SHT30;60269;52.502;16.732;2023-02-02T23:20:21;-2.03;97.73
72320;SHT30;60269;52.502;16.732;2023-02-02T23:23:54;-1.99;97.49
72320;SHT30;60269;52.502;16.732;2023-02-02T23:27:26;-2.03;97.47
72320;SHT30;60269;52.502;16.732;2023-02-02T23:30:58;-1.89;96.87
72320;SHT30;60269;52.502;16.732;2023-02-02T23:34:31;-1.87;96.74
72320;SHT30;60269;52.502;16.732;2023-02-02T23:38:03;-1.92;96.80
72320;SHT30;60269;52.502;16.732;2023-02-02T23:41:35;-1.82;96.69
72320;SHT30;60269;52.502;16.732;2023-02-02T23:45:07;-1.81;96.54
72320;SHT30;60269;52.502;16.732;2023-02-02T23:48:40;-1.89;96.89
72320;SHT30;60269;52.502;16.732;2023-02-02T23:52:12;-1.89;97.22
72320;SHT30;60269;52.502;16.732;2023-02-02T23:55:45;-1.94;97.08
72320;SHT30;60269;52.502;16.732;2023-02-02T23:59:17;-2.01;97.38
